Tropical Cyclones
[Index]
Main Index Home Page Stock Weather Photos Extreme Storms Discussion Storm News and Storm Chasing Reports Tropical Cyclones / Hurricanes / Typhoons Weather Data and Links Wild Fires / Bushfires Weather Observation Techniques Weather Picture Catalogue Tornado Pictures and Reports Stock Video Footage and DVDs for sale
Season 1963-1964 Tropical Cyclone BESSIE Track Map
Season 1963-1964 Summaries: [BoM-AU] [JTWC-AU] [JTWC-SIO] [JTWC-SPAC] [JTWC-SH]
<<- Previous TC | JTWC 1963-1964 Season | Next TC ->>

click for intensity scale information  Lat/long Grid: Show Hide

 Date Labels: Show Hide

Joint Typhoon Warning Centre Cyclone Data

Name: BESSIE
Number: 507 / 6405

04 Jan 1964 00:00 UTC to 11 Jan 1964 18:00 UTC

    date/time    lat    long     hPa   cat  kts
1964-01-04 00   13.8   125.3                              
1964-01-04 06   13.9   125.2                              
1964-01-04 12   13.9   125.1                              
1964-01-04 18   14.0   125.1                              
1964-01-05 00   14.0   125.0                              
1964-01-05 06   14.3   124.8                              
1964-01-05 12   14.6   124.6                              
1964-01-05 18   14.9   124.4                              
1964-01-06 00   15.1   124.2                              
1964-01-06 06   15.4   123.8                              
1964-01-06 12   15.7   123.3                              
1964-01-06 18   16.0   122.7                              
1964-01-07 00   16.3   122.2                              
1964-01-07 06   16.6   121.9                              
1964-01-07 12   16.8   121.7                              
1964-01-07 18   17.2   121.3                              
1964-01-08 00   17.4   121.2                              
1964-01-08 06   17.6   121.1                              
1964-01-08 12   17.8   121.1                              
1964-01-08 18   18.0   121.0                              
1964-01-09 00   18.1   121.0                              
1964-01-09 06   18.6   121.0                              
1964-01-09 12   18.9   121.3                              
1964-01-09 18   19.2   121.6                              
1964-01-10 00   19.3   122.0                              
1964-01-10 06   19.3   122.3                              
1964-01-10 12   19.4   122.7                              
1964-01-10 18   19.7   122.9                              
1964-01-11 00   19.9   123.1                              
1964-01-11 06   20.2   123.5                              
1964-01-11 12   20.4   123.7                              
1964-01-11 18   20.7   124.0                              
Winds are 1-min average.

Tropical cyclone tracks developed by Michael Bath using data from the Joint Typhoon Warning Centre Best Tracks and Google Maps.


[Australian Severe Weather index] [Copyright Notice] [Email Contacts] [Search This Site] [Privacy Policy]
Document: tropical_cyclone_bessie.htm Updated: 18 September 2016